createdAt,value
2018-09-01T06:48:34.177Z,2.80
2018-09-01T06:51:02.313Z,2.77
2018-09-01T06:53:30.429Z,2.70
2018-09-01T06:55:58.587Z,7.83
2018-09-01T06:58:26.738Z,2.73
2018-09-01T07:00:54.865Z,3.00
2018-09-01T07:03:22.988Z,2.83
2018-09-01T07:05:51.097Z,2.80
2018-09-01T07:08:19.212Z,2.90
2018-09-01T07:10:47.336Z,3.23
2018-09-01T07:13:15.482Z,2.63
2018-09-01T07:15:43.632Z,3.20
2018-09-01T07:18:17.627Z,3.20
2018-09-01T07:20:45.740Z,2.80
2018-09-01T07:23:13.848Z,3.17
2018-09-01T07:25:41.988Z,3.37
2018-09-01T07:28:10.096Z,3.60
2018-09-01T07:30:38.388Z,3.47
2018-09-01T07:33:06.086Z,3.10
2018-09-01T07:35:34.218Z,2.83
2018-09-01T07:38:02.380Z,3.40
2018-09-01T07:40:30.572Z,2.80
2018-09-01T07:42:58.659Z,3.27
2018-09-01T07:45:26.805Z,3.17
2018-09-01T07:47:54.929Z,3.00
2018-09-01T07:50:23.192Z,3.50
2018-09-01T07:52:51.339Z,3.37
2018-09-01T07:55:19.609Z,3.50
2018-09-01T07:57:47.764Z,3.40
2018-09-01T08:00:15.880Z,3.30
2018-09-01T08:02:44.038Z,3.40
2018-09-01T08:05:12.169Z,3.97
2018-09-01T08:07:40.325Z,3.10
2018-09-01T08:10:08.860Z,3.40
2018-09-01T08:12:37.091Z,3.10
2018-09-01T08:15:06.007Z,3.30
2018-09-01T08:17:34.133Z,3.20
2018-09-01T08:20:02.281Z,3.37
2018-09-01T08:22:30.412Z,3.30
2018-09-01T08:24:58.539Z,3.10
2018-09-01T08:27:26.732Z,3.13
2018-09-01T08:29:54.897Z,3.30
2018-09-01T08:32:23.019Z,3.67
2018-09-01T08:34:51.149Z,3.40
2018-09-01T08:37:19.288Z,3.63
2018-09-01T08:39:47.840Z,3.30
2018-09-01T08:42:15.996Z,2.93
2018-09-01T08:44:44.133Z,3.57
2018-09-01T08:47:12.284Z,3.10
2018-09-01T08:49:40.478Z,3.40
2018-09-01T08:52:08.625Z,3.47
2018-09-01T08:54:36.770Z,3.13
2018-09-01T08:57:04.963Z,3.10
2018-09-01T08:59:33.088Z,3.43
2018-09-01T09:02:01.512Z,3.57
2018-09-01T09:04:29.649Z,3.70
2018-09-01T09:06:57.773Z,3.60
2018-09-01T09:09:25.931Z,3.43
2018-09-01T09:11:54.052Z,3.17
2018-09-01T09:14:22.168Z,4.07
2018-09-01T09:16:50.302Z,3.53
2018-09-01T09:19:18.413Z,3.70
2018-09-01T09:21:46.554Z,3.50
2018-09-01T09:24:14.680Z,3.63
2018-09-01T09:26:42.812Z,2.97
2018-09-01T09:29:10.939Z,3.20
2018-09-01T09:31:39.071Z,3.30
2018-09-01T09:34:07.192Z,3.17
2018-09-01T09:36:35.316Z,3.10
2018-09-01T09:39:05.036Z,3.30
2018-09-01T09:41:33.225Z,3.20
2018-09-01T09:44:01.352Z,3.30
2018-09-01T09:46:29.483Z,3.30
2018-09-01T09:48:57.611Z,3.10
2018-09-01T09:51:25.739Z,3.00
2018-09-01T09:53:53.899Z,2.97
2018-09-01T09:56:22.156Z,2.87
2018-09-01T09:58:50.275Z,2.73
2018-09-01T10:01:23.670Z,3.20
2018-09-01T10:03:51.813Z,3.27
2018-09-01T10:06:19.960Z,3.30
2018-09-01T10:08:48.093Z,3.13
2018-09-01T10:11:16.216Z,3.13
2018-09-01T10:13:44.332Z,2.90
2018-09-01T10:16:12.495Z,2.83
2018-09-01T10:18:40.651Z,3.20
2018-09-01T10:21:08.784Z,3.23
2018-09-01T10:23:36.927Z,3.37
2018-09-01T10:26:05.068Z,3.07
2018-09-01T10:28:33.188Z,2.83
2018-09-01T10:31:01.312Z,3.00
2018-09-01T10:33:29.448Z,2.57
2018-09-01T10:35:57.568Z,2.70
2018-09-01T10:38:26.755Z,2.70
2018-09-01T10:40:54.829Z,2.53
2018-09-01T10:43:22.992Z,3.00
2018-09-01T10:45:51.660Z,2.70
2018-09-01T10:48:19.818Z,2.80
2018-09-01T10:50:47.955Z,2.90
2018-09-01T10:53:16.072Z,2.67
2018-09-01T10:55:44.215Z,3.07
2018-09-01T10:58:12.511Z,3.10
2018-09-01T11:00:40.660Z,3.13
2018-09-01T11:03:08.776Z,3.27
2018-09-01T11:05:36.944Z,2.80
2018-09-01T11:08:05.442Z,2.53
2018-09-01T11:10:33.564Z,3.17
2018-09-01T11:13:01.681Z,3.10
2018-09-01T11:15:29.827Z,3.03
2018-09-01T11:17:57.961Z,2.80
2018-09-01T11:20:26.092Z,3.30
2018-09-01T11:22:54.235Z,3.17
2018-09-01T11:25:22.376Z,3.13
2018-09-01T11:27:50.903Z,3.20
2018-09-01T11:30:19.044Z,2.90
2018-09-01T11:32:47.376Z,3.20
2018-09-01T11:35:15.513Z,3.37
2018-09-01T11:37:43.650Z,3.30
2018-09-01T11:40:11.875Z,3.20
2018-09-01T11:42:40.093Z,3.60
2018-09-01T11:45:08.162Z,3.40
2018-09-01T11:47:36.295Z,3.27
2018-09-01T11:50:04.447Z,3.90
2018-09-01T11:52:32.558Z,4.37
2018-09-01T11:55:00.696Z,4.20
2018-09-01T11:57:28.860Z,3.63
2018-09-01T11:59:57.008Z,3.97
2018-09-01T12:02:25.193Z,3.60
2018-09-01T12:04:53.375Z,4.30
2018-09-01T12:07:21.520Z,4.17
2018-09-01T12:09:49.652Z,4.40
2018-09-01T12:12:17.798Z,3.93
2018-09-01T12:14:45.932Z,4.10
2018-09-01T12:17:14.056Z,4.10
2018-09-01T12:19:42.794Z,4.27
2018-09-01T12:22:11.010Z,4.93
2018-09-01T12:24:39.215Z,4.50
2018-09-01T12:27:07.372Z,4.23
2018-09-01T12:29:35.635Z,4.30
2018-09-01T12:32:03.795Z,4.50
2018-09-01T12:34:32.027Z,4.60
2018-09-01T12:37:00.271Z,4.57
2018-09-01T12:39:28.416Z,4.60
2018-09-01T12:41:56.583Z,4.70
2018-09-01T12:44:24.767Z,4.50
2018-09-01T12:46:52.972Z,4.67
2018-09-01T12:49:21.442Z,5.60
2018-09-01T12:51:49.680Z,5.73
2018-09-01T12:54:17.843Z,4.70
2018-09-01T12:56:45.976Z,7.97
2018-09-01T12:59:14.097Z,6.53
2018-09-01T13:01:42.344Z,4.93
2018-09-01T13:04:10.464Z,4.20
2018-09-01T13:06:38.593Z,4.30
2018-09-01T13:09:07.349Z,4.60
2018-09-01T13:11:35.485Z,4.87
2018-09-01T13:14:03.645Z,5.17
2018-09-01T13:16:31.767Z,5.53
2018-09-01T13:19:00.137Z,5.37
2018-09-01T13:21:28.256Z,5.13
2018-09-01T13:23:56.397Z,4.90
2018-09-01T13:26:24.572Z,5.77
2018-09-01T13:28:52.703Z,5.50
2018-09-01T13:31:20.839Z,5.27
2018-09-01T13:33:49.193Z,6.23
2018-09-01T13:36:18.844Z,5.90
2018-09-01T13:38:47.021Z,5.80
2018-09-01T13:41:16.474Z,5.53
2018-09-01T13:43:44.798Z,5.70
2018-09-01T13:46:13.003Z,5.77
2018-09-01T13:48:41.108Z,6.00
2018-09-01T13:51:09.240Z,6.17
2018-09-01T13:53:37.381Z,6.50
2018-09-01T13:56:05.511Z,6.70
2018-09-01T13:58:33.641Z,6.70
2018-09-01T14:01:01.905Z,6.70
2018-09-01T14:03:30.030Z,6.40
2018-09-01T14:05:58.385Z,7.03
2018-09-01T14:08:26.530Z,6.30
2018-09-01T14:10:54.769Z,7.43
2018-09-01T14:13:22.964Z,8.97
2018-09-01T14:15:51.111Z,8.00
2018-09-01T14:18:19.280Z,8.50
2018-09-01T14:20:47.411Z,8.10
2018-09-01T14:23:15.540Z,8.43
2018-09-01T14:25:43.694Z,8.90
2018-09-01T14:28:11.804Z,8.00
2018-09-01T14:30:39.948Z,8.27
2018-09-01T14:33:08.128Z,9.17
2018-09-01T14:35:36.272Z,8.27
2018-09-01T14:38:04.451Z,8.73
2018-09-01T14:40:32.771Z,9.70
2018-09-01T14:43:01.945Z,8.20
2018-09-01T14:45:30.109Z,7.70
2018-09-01T14:47:58.236Z,7.83
2018-09-01T14:50:26.349Z,7.80
2018-09-01T14:52:54.716Z,8.47
2018-09-01T14:55:22.877Z,8.03
2018-09-01T14:57:51.021Z,7.77
2018-09-01T15:00:19.166Z,8.37
2018-09-01T15:02:47.321Z,8.20
2018-09-01T15:05:15.503Z,8.10
2018-09-01T15:07:43.656Z,7.77
2018-09-01T15:10:11.880Z,8.03
2018-09-01T15:12:40.003Z,8.73
2018-09-01T15:15:08.332Z,8.07
2018-09-01T15:17:38.283Z,9.20
2018-09-01T15:20:06.456Z,8.50
2018-09-01T15:22:34.638Z,8.30
2018-09-01T15:25:02.811Z,8.47
2018-09-01T15:27:30.936Z,8.07
2018-09-01T15:29:59.092Z,8.53
2018-09-01T15:32:27.243Z,9.30
2018-09-01T15:34:55.366Z,8.83
2018-09-01T15:37:23.585Z,9.43
2018-09-01T15:39:51.972Z,8.83
2018-09-01T15:42:20.111Z,8.70
2018-09-01T15:44:48.341Z,9.90
2018-09-01T15:47:16.633Z,9.50
2018-09-01T15:49:45.035Z,9.33
2018-09-01T15:52:13.152Z,9.13
2018-09-01T15:54:41.276Z,9.83
2018-09-01T15:57:09.419Z,9.37
2018-09-01T15:59:37.552Z,11.63
2018-09-01T16:02:06.019Z,11.17
2018-09-01T16:04:34.258Z,9.23
2018-09-01T16:07:02.398Z,9.57
2018-09-01T16:09:30.520Z,9.30
2018-09-01T16:11:58.706Z,9.77
2018-09-01T16:14:26.853Z,9.60
2018-09-01T16:16:55.094Z,9.80
2018-09-01T16:19:23.341Z,9.37
2018-09-01T16:21:51.488Z,10.33
2018-09-01T16:24:19.633Z,9.37
2018-09-01T16:26:47.799Z,9.57
2018-09-01T16:29:16.012Z,9.43
2018-09-01T16:31:44.328Z,9.70
2018-09-01T16:34:12.527Z,9.13
2018-09-01T16:36:40.735Z,9.93
2018-09-01T16:39:08.982Z,8.53
2018-09-01T16:41:37.200Z,8.03
2018-09-01T16:44:05.416Z,7.53
2018-09-01T16:46:33.540Z,8.07
2018-09-01T16:49:01.667Z,7.07
2018-09-01T16:51:29.868Z,7.27
2018-09-01T16:53:58.077Z,8.27
2018-09-01T16:56:26.229Z,8.00
2018-09-01T16:58:54.424Z,8.53
2018-09-01T17:01:22.573Z,7.93
2018-09-01T17:03:50.700Z,7.77
2018-09-01T17:06:18.865Z,7.90
2018-09-01T17:08:46.995Z,8.60
2018-09-01T17:11:15.129Z,8.00
2018-09-01T17:13:43.339Z,8.10
2018-09-01T17:16:11.532Z,7.77
2018-09-01T17:18:39.849Z,8.17
2018-09-01T17:21:08.017Z,9.27
2018-09-01T17:23:36.183Z,8.83
2018-09-01T17:26:04.934Z,8.37
2018-09-01T17:28:33.297Z,8.90
2018-09-01T17:31:01.499Z,8.83
2018-09-01T17:33:29.780Z,8.57
2018-09-01T17:35:58.030Z,9.63
2018-09-01T17:38:26.248Z,10.10
2018-09-01T17:40:54.451Z,9.90
2018-09-01T17:43:22.640Z,9.83
2018-09-01T17:45:50.807Z,9.80
2018-09-01T17:48:18.999Z,11.10
2018-09-01T17:50:47.124Z,10.20
2018-09-01T17:53:15.341Z,11.13
2018-09-01T17:55:43.659Z,11.50
2018-09-01T17:58:11.820Z,11.13
2018-09-01T18:00:39.948Z,10.63
2018-09-01T18:03:08.576Z,11.33
2018-09-01T18:05:36.783Z,11.97
2018-09-01T18:08:05.044Z,11.83
2018-09-01T18:10:33.252Z,12.40
2018-09-01T18:13:01.449Z,12.87
2018-09-01T18:15:29.584Z,15.83
2018-09-01T18:17:57.708Z,14.57
2018-09-01T18:20:25.880Z,12.37
2018-09-01T18:22:54.069Z,16.07
2018-09-01T18:25:22.196Z,14.57
2018-09-01T18:27:50.380Z,13.97
2018-09-01T18:30:18.507Z,15.50
2018-09-01T18:32:46.666Z,14.23
2018-09-01T18:35:14.859Z,14.70
2018-09-01T18:37:42.974Z,15.57
2018-09-01T18:40:11.219Z,15.00
2018-09-01T18:42:39.353Z,14.53
2018-09-01T18:45:08.444Z,16.07
2018-09-01T18:47:36.703Z,14.53
2018-09-01T18:50:04.906Z,12.77
2018-09-01T18:52:33.044Z,13.57
2018-09-01T18:55:01.215Z,13.27
2018-09-01T18:57:29.350Z,16.50
2018-09-01T18:59:57.598Z,13.80
2018-09-01T19:02:25.825Z,13.23
2018-09-01T19:04:53.985Z,13.17
2018-09-01T19:07:22.134Z,14.33
2018-09-01T19:09:50.284Z,13.57
2018-09-01T19:12:18.461Z,14.73
2018-09-01T19:14:46.636Z,12.20
2018-09-01T19:17:14.747Z,11.83
2018-09-01T19:19:42.889Z,11.07
2018-09-01T19:22:11.051Z,11.13
2018-09-01T19:24:39.196Z,10.53
2018-09-01T19:27:07.481Z,11.13
2018-09-01T19:29:35.748Z,13.03
2018-09-01T19:32:04.124Z,12.00
2018-09-01T19:34:32.276Z,11.60
2018-09-01T19:37:00.557Z,12.00
2018-09-01T19:39:28.851Z,11.53
2018-09-01T19:41:57.133Z,11.50
2018-09-01T19:44:25.348Z,11.77
2018-09-01T19:46:53.528Z,11.70
2018-09-01T19:49:21.671Z,12.13
2018-09-01T19:51:50.030Z,12.00
2018-09-01T19:54:18.292Z,12.77
2018-09-01T19:56:46.493Z,13.73
2018-09-01T19:59:14.628Z,13.50
2018-09-01T20:01:42.744Z,12.73
2018-09-01T20:04:11.184Z,13.80
2018-09-01T20:06:39.320Z,14.90
2018-09-01T20:09:07.540Z,13.53
2018-09-01T20:11:35.971Z,13.10
2018-09-01T20:14:04.173Z,12.87
2018-09-01T20:16:32.321Z,13.63
2018-09-01T20:19:00.452Z,12.50
2018-09-01T20:21:28.642Z,11.93
2018-09-01T20:23:56.781Z,14.00
2018-09-01T20:26:24.920Z,13.87
2018-09-01T20:28:53.033Z,13.77
2018-09-01T20:31:21.230Z,13.07
2018-09-01T20:33:49.392Z,13.73
2018-09-01T20:36:20.829Z,12.73
2018-09-01T20:38:49.013Z,12.97
2018-09-01T20:41:17.142Z,13.27
2018-09-01T20:43:45.320Z,14.50
2018-09-01T20:46:13.435Z,13.90
2018-09-01T20:48:41.566Z,13.97
2018-09-01T20:51:09.696Z,14.63
2018-09-01T20:53:37.884Z,14.30
2018-09-01T20:56:06.019Z,14.13
2018-09-01T20:58:34.140Z,14.23
